Time;durP1;ratioP1;P1;durP2;ratioP2;P2;SDS_P1;SDS_P2;PMS_P1;PMS_P2;Temp;Humidity;BMP_temperature;BMP_pressure;BME280_temperature;BME280_humidity;BME280_pressure;Samples;Min_cycle;Max_cycle;Signal;HPM_P1;HPM_P2
2022/01/06 00:03:11;;;;;;;4.8;8.7;;;;;;;2.4;69;97650;;;;
2022/01/06 00:14:16;;;;;;;4.3;7.8;;;;;;;2.5;68.6;97650;;;;
2022/01/06 00:24:11;;;;;;;4.3;7.8;;;;;;;2.6;68.1;97640;;;;
2022/01/06 00:35:11;;;;;;;4.3;7.8;;;;;;;2.7;68.3;97650;;;;
2022/01/06 00:45:11;;;;;;;4;6.3;;;;;;;2.8;68.6;97670;;;;
2022/01/06 00:55:11;;;;;;;4;6.3;;;;;;;2.8;68.3;97680;;;;
2022/01/06 01:05:11;;;;;;;4;6.3;;;;;;;2.8;67.8;97650;;;;
2022/01/06 01:15:18;;;;;;;3.9;7.1;;;;;;;2.9;68;97660;;;;
2022/01/06 01:26:11;;;;;;;3.9;7.1;;;;;;;2.9;67.7;97660;;;;
2022/01/06 01:37:11;;;;;;;3.9;7.1;;;;;;;2.9;67.8;97650;;;;
2022/01/06 01:47:14;;;;;;;3.8;7.5;;;;;;;2.9;67.5;97650;;;;
2022/01/06 01:57:11;;;;;;;3.8;7.5;;;;;;;2.9;67.7;97640;;;;
2022/01/06 02:08:11;;;;;;;3.8;7.5;;;;;;;2.7;68.1;97650;;;;
2022/01/06 02:18:11;;;;;;;2.9;6.5;;;;;;;2.6;68.1;97670;;;;
2022/01/06 02:29:11;;;;;;;2.9;6.5;;;;;;;2.4;68.7;97680;;;;
2022/01/06 02:39:11;;;;;;;2.9;6.5;;;;;;;2.3;69.3;97680;;;;
2022/01/06 02:50:11;;;;;;;2.8;5.1;;;;;;;2.5;69.1;97670;;;;
2022/01/06 03:00:11;;;;;;;2.8;5.1;;;;;;;2.6;68.8;97670;;;;
2022/01/06 03:11:11;;;;;;;2.8;5.1;;;;;;;2.7;69.1;97670;;;;
2022/01/06 03:21:11;;;;;;;2.4;5.1;;;;;;;2.8;68.6;97680;;;;
2022/01/06 03:31:11;;;;;;;2.4;5.1;;;;;;;2.8;68.8;97680;;;;
2022/01/06 03:41:11;;;;;;;2.4;5.1;;;;;;;2.9;69;97670;;;;
2022/01/06 03:52:11;;;;;;;2.9;5.6;;;;;;;2.9;68.5;97680;;;;
2022/01/06 04:02:11;;;;;;;2.9;5.6;;;;;;;2.9;67.9;97680;;;;
2022/01/06 04:13:11;;;;;;;2.7;5.9;;;;;;;3;67.7;97690;;;;
2022/01/06 04:23:11;;;;;;;2.7;5.9;;;;;;;3;67.4;97700;;;;
2022/01/06 04:33:11;;;;;;;2.7;5.9;;;;;;;3.2;67.1;97700;;;;
2022/01/06 04:44:11;;;;;;;2.9;7.4;;;;;;;3.2;67.1;97710;;;;
2022/01/06 04:55:11;;;;;;;2.9;7.4;;;;;;;3.3;67.3;97730;;;;
2022/01/06 05:06:11;;;;;;;2.9;7.4;;;;;;;3.3;67.1;97720;;;;
2022/01/06 05:17:11;;;;;;;3.2;5.3;;;;;;;3.2;67.7;97750;;;;
2022/01/06 05:27:11;;;;;;;3.2;5.3;;;;;;;3.3;67.4;97750;;;;
2022/01/06 05:38:11;;;;;;;3.2;5.3;;;;;;;3.3;67.7;97750;;;;
2022/01/06 05:48:11;;;;;;;2.6;7.1;;;;;;;3.3;67.6;97750;;;;
2022/01/06 05:58:11;;;;;;;2.6;7.1;;;;;;;3.4;67.2;97770;;;;
2022/01/06 06:08:11;;;;;;;2.6;7.1;;;;;;;3.4;67.5;97760;;;;
2022/01/06 06:19:11;;;;;;;2.9;5.5;;;;;;;3.4;67.2;97770;;;;
2022/01/06 06:30:11;;;;;;;2.9;5.5;;;;;;;3.5;66.7;97780;;;;
2022/01/06 06:41:11;;;;;;;2.9;5.5;;;;;;;3.6;66.4;97800;;;;
2022/01/06 06:51:13;;;;;;;2.5;4.4;;;;;;;3.5;67;97800;;;;
2022/01/06 07:01:11;;;;;;;2.5;4.4;;;;;;;3.6;66.9;97810;;;;
2022/01/06 07:11:11;;;;;;;2.5;4.4;;;;;;;3.7;67;97820;;;;
2022/01/06 07:22:11;;;;;;;3.2;5.9;;;;;;;3.8;66.8;97830;;;;
2022/01/06 07:32:11;;;;;;;3.2;5.9;;;;;;;3.8;66.8;97840;;;;
2022/01/06 07:43:11;;;;;;;4;6.6;;;;;;;3.9;67;97860;;;;
2022/01/06 07:53:11;;;;;;;4;6.6;;;;;;;3.9;69;97870;;;;
2022/01/06 08:03:11;;;;;;;4;6.6;;;;;;;3.8;70.5;97870;;;;
2022/01/06 08:14:11;;;;;;;5.1;7.4;;;;;;;3.7;71.5;97880;;;;
2022/01/06 08:24:11;;;;;;;5.1;7.4;;;;;;;3.7;72.5;97890;;;;
2022/01/06 08:35:11;;;;;;;5.1;7.4;;;;;;;3.6;72.3;97910;;;;
2022/01/06 08:45:11;;;;;;;4.9;8.2;;;;;;;3.8;73.3;97920;;;;
2022/01/06 08:55:11;;;;;;;4.9;8.2;;;;;;;3.8;72.6;97920;;;;
2022/01/06 09:06:11;;;;;;;4.9;8.2;;;;;;;4;72.9;97920;;;;
2022/01/06 09:16:11;;;;;;;5.1;7.4;;;;;;;4.2;71.1;97920;;;;
2022/01/06 09:27:11;;;;;;;5.1;7.4;;;;;;;4.4;70.6;97930;;;;
2022/01/06 09:38:11;;;;;;;5.1;7.4;;;;;;;4.4;68.8;97930;;;;
2022/01/06 09:48:12;;;;;;;5.8;9;;;;;;;4.5;68.5;97930;;;;
2022/01/06 09:58:11;;;;;;;5.8;9;;;;;;;4.6;68.2;97940;;;;
2022/01/06 10:08:11;;;;;;;5.8;9;;;;;;;4.9;67.9;97930;;;;
2022/01/06 10:19:11;;;;;;;7.4;13.1;;;;;;;4.9;66.6;97950;;;;
2022/01/06 10:30:11;;;;;;;7.4;13.1;;;;;;;5;66.3;97930;;;;
2022/01/06 10:40:11;;;;;;;7.4;13.1;;;;;;;5.2;66.3;97950;;;;
2022/01/06 10:51:11;;;;;;;5.6;8.3;;;;;;;4.3;69.1;97970;;;;
2022/01/06 11:02:11;;;;;;;5.6;8.3;;;;;;;3.8;71.4;97980;;;;
2022/01/06 11:12:27;;;;;;;6.6;10.1;;;;;;;3.8;72.2;98000;;;;
2022/01/06 11:22:13;;;;;;;6.6;10.1;;;;;;;3.4;73.1;98000;;;;
2022/01/06 11:33:11;;;;;;;6.6;10.1;;;;;;;3.4;74;98030;;;;
2022/01/06 11:43:11;;;;;;;4.8;6.6;;;;;;;3.5;67.5;98040;;;;
2022/01/06 11:53:11;;;;;;;4.8;6.6;;;;;;;3.4;66.4;98050;;;;
2022/01/06 12:03:11;;;;;;;4.8;6.6;;;;;;;3.1;66.3;98070;;;;
2022/01/06 12:14:12;;;;;;;4.1;8.1;;;;;;;3.2;66;98090;;;;
2022/01/06 12:24:11;;;;;;;4.1;8.1;;;;;;;3.3;65.3;98100;;;;
2022/01/06 12:34:12;;;;;;;4.1;8.1;;;;;;;2.9;63.8;98120;;;;
2022/01/06 12:45:11;;;;;;;6.7;9.8;;;;;;;2.9;62.5;98130;;;;
2022/01/06 12:55:11;;;;;;;6.7;9.8;;;;;;;2.6;61.5;98150;;;;
2022/01/06 13:06:11;;;;;;;6.7;9.8;;;;;;;2.4;62;98190;;;;
2022/01/06 13:16:11;;;;;;;3.8;7;;;;;;;2.3;62.2;98210;;;;
2022/01/06 13:26:11;;;;;;;3.8;7;;;;;;;2.5;63.4;98250;;;;
2022/01/06 13:37:11;;;;;;;3.8;7;;;;;;;2.2;60.3;98280;;;;
2022/01/06 13:48:21;;;;;;;5.6;8.9;;;;;;;1.9;57.6;98310;;;;
2022/01/06 13:58:11;;;;;;;5.6;8.9;;;;;;;1.6;58.1;98350;;;;
2022/01/06 14:09:11;;;;;;;5.6;8.9;;;;;;;1.4;58.9;98380;;;;
2022/01/06 14:19:11;;;;;;;5.1;8.2;;;;;;;1.1;57.9;98430;;;;
2022/01/06 14:29:11;;;;;;;5.1;8.2;;;;;;;0.7;57.5;98440;;;;
2022/01/06 14:39:11;;;;;;;5.1;8.2;;;;;;;0.5;57.9;98470;;;;
2022/01/06 14:50:12;;;;;;;4.1;8;;;;;;;0.4;57.7;98500;;;;
2022/01/06 15:00:11;;;;;;;4.1;8;;;;;;;0;59.2;98510;;;;
2022/01/06 15:10:11;;;;;;;4.1;8;;;;;;;-0.2;59.9;98520;;;;
2022/01/06 15:21:11;;;;;;;4.8;8;;;;;;;-0.4;60.8;98550;;;;
2022/01/06 15:32:11;;;;;;;4.8;8;;;;;;;-0.5;60.1;98570;;;;
2022/01/06 15:43:12;;;;;;;4.2;7.4;;;;;;;-0.6;60.2;98580;;;;
2022/01/06 15:53:11;;;;;;;4.2;7.4;;;;;;;-0.6;61.1;98600;;;;
2022/01/06 16:14:11;;;;;;;7;9.8;;;;;;;-0.5;61;98620;;;;
2022/01/06 16:24:11;;;;;;;7;9.8;;;;;;;-0.3;60.6;98630;;;;
2022/01/06 16:34:11;;;;;;;7;9.8;;;;;;;-0.2;61.2;98650;;;;
2022/01/06 16:45:11;;;;;;;6.8;10.2;;;;;;;-0.5;65.8;98680;;;;
2022/01/06 16:56:11;;;;;;;6.8;10.2;;;;;;;-0.7;69.8;98690;;;;
2022/01/06 17:06:11;;;;;;;6.8;10.2;;;;;;;-0.9;73.1;98690;;;;
2022/01/06 17:17:12;;;;;;;7.5;12.7;;;;;;;-0.9;72.6;98690;;;;
2022/01/06 17:28:11;;;;;;;7.5;12.7;;;;;;;-0.8;72.1;98710;;;;
2022/01/06 17:39:11;;;;;;;7.5;12.7;;;;;;;-0.7;71.5;98730;;;;
2022/01/06 17:50:11;;;;;;;5.9;8.6;;;;;;;-0.7;71.7;98750;;;;
2022/01/06 18:00:11;;;;;;;5.9;8.6;;;;;;;-0.7;71.9;98760;;;;
2022/01/06 18:21:11;;;;;;;9;12.5;;;;;;;-0.6;72;98800;;;;
2022/01/06 18:31:11;;;;;;;9;12.5;;;;;;;-0.5;71.4;98810;;;;
2022/01/06 18:41:11;;;;;;;10.4;20.2;;;;;;;-0.5;71.2;98820;;;;
2022/01/06 18:52:11;;;;;;;10.4;20.2;;;;;;;-0.6;69;98830;;;;
2022/01/06 19:02:11;;;;;;;10.4;20.2;;;;;;;-0.6;68.4;98850;;;;
2022/01/06 19:13:11;;;;;;;7.2;11.7;;;;;;;-0.6;68.3;98870;;;;
2022/01/06 19:23:11;;;;;;;7.2;11.7;;;;;;;-0.7;68.1;98880;;;;
2022/01/06 19:33:11;;;;;;;7.2;11.7;;;;;;;-0.6;68;98900;;;;
2022/01/06 19:44:12;;;;;;;8.9;12.7;;;;;;;-0.5;67.1;98910;;;;
2022/01/06 19:55:11;;;;;;;8.9;12.7;;;;;;;-0.5;66.5;98930;;;;
2022/01/06 20:06:11;;;;;;;8.9;12.7;;;;;;;-0.7;65.8;98930;;;;
2022/01/06 20:17:11;;;;;;;8.5;13.8;;;;;;;-1;67.5;98930;;;;
2022/01/06 20:27:11;;;;;;;8.5;13.8;;;;;;;-1;69.4;98950;;;;
2022/01/06 20:38:11;;;;;;;8.5;13.8;;;;;;;-0.9;69.4;98960;;;;
2022/01/06 20:59:11;;;;;;;10.1;17.8;;;;;;;-1;68.1;98980;;;;
2022/01/06 21:09:13;;;;;;;10.1;17.8;;;;;;;-1.3;67;99020;;;;
2022/01/06 21:19:11;;;;;;;10.1;18.6;;;;;;;-1.5;66.9;99030;;;;
2022/01/06 21:29:13;;;;;;;10.1;18.6;;;;;;;-1.4;65.8;99060;;;;
2022/01/06 21:39:11;;;;;;;10.1;18.6;;;;;;;-1.6;65.9;99070;;;;
2022/01/06 21:50:13;;;;;;;7.9;10.1;;;;;;;-1.8;66.1;99080;;;;
2022/01/06 22:00:11;;;;;;;7.9;10.1;;;;;;;-1.9;66.5;99090;;;;
2022/01/06 22:10:11;;;;;;;7.9;12.3;;;;;;;-2.1;66.8;99100;;;;
2022/01/06 22:21:11;;;;;;;7.9;12.3;;;;;;;-2.2;67.2;99110;;;;
2022/01/06 22:31:11;;;;;;;7.9;12.3;;;;;;;-2.3;67.2;99130;;;;
2022/01/06 22:42:11;;;;;;;8.7;12.1;;;;;;;-2.4;67.5;99150;;;;
2022/01/06 22:52:11;;;;;;;8.7;12.1;;;;;;;-2.5;67.4;99160;;;;
2022/01/06 23:02:11;;;;;;;8.7;12.1;;;;;;;-2.6;68;99170;;;;
2022/01/06 23:12:11;;;;;;;9.2;13.6;;;;;;;-2.6;68.1;99180;;;;
2022/01/06 23:23:13;;;;;;;9.2;13.6;;;;;;;-2.7;68.4;99200;;;;
2022/01/06 23:34:11;;;;;;;9.2;13.6;;;;;;;-3;69;99200;;;;
2022/01/06 23:45:11;;;;;;;10;14.5;;;;;;;-3.1;70.1;99210;;;;
2022/01/06 23:55:11;;;;;;;10;14.5;;;;;;;-3.3;70.7;99220;;;;
